Time;durP1;ratioP1;P1;durP2;ratioP2;P2;SDS_P1;SDS_P2;PMS_P1;PMS_P2;Temp;Humidity;BMP_temperature;BMP_pressure;BME280_temperature;BME280_humidity;BME280_pressure;Samples;Min_cycle;Max_cycle;Signal;HPM_P1;HPM_P2
2022/02/25 00:02:23;;;;;;;;;;;230.70;1280.00;;;;;;5016409;28;19919;-65
2022/02/25 00:04:48;;;;;;;;;;;230.70;1305.60;;;;;;5016234;28;19944;-63
2022/02/25 00:07:14;;;;;;;;;;;230.70;1280.00;;;;;;5018985;28;19963;-69
2022/02/25 00:09:39;;;;;;;;;;;230.80;1280.00;;;;;;5036701;28;20266;-63
2022/02/25 00:12:05;;;;;;;;;;;230.70;1280.00;;;;;;5033999;28;19905;-67
2022/02/25 00:14:30;;;;;;;;;;;230.80;1280.00;;;;;;5034136;28;19940;-66
2022/02/25 00:16:56;;;;;;;;;;;230.70;1280.00;;;;;;5033919;28;19909;-64
2022/02/25 00:19:22;;;;;;;;;;;230.60;1280.00;;;;;;5033711;28;19947;-64
2022/02/25 00:21:47;;;;;;;;;;;230.70;1280.00;;;;;;5034023;28;19974;-65
2022/02/25 00:24:13;;;;;;;;;;;230.70;1280.00;;;;;;5031445;28;20350;-64
2022/02/25 00:26:38;;;;;;;;;;;230.70;1280.00;;;;;;5034024;28;19905;-65
2022/02/25 00:29:05;;;;;;;;;;;230.70;1280.00;;;;;;5033742;28;19943;-65
2022/02/25 00:31:31;;;;;;;;;;;230.70;1280.00;;;;;;5033328;28;19920;-65
2022/02/25 00:33:56;;;;;;;;;;;230.70;1280.00;;;;;;5033763;28;20047;-65
2022/02/25 00:36:22;;;;;;;;;;;230.70;1280.00;;;;;;5033505;28;19906;-65
2022/02/25 00:38:47;;;;;;;;;;;230.60;1280.00;;;;;;5032757;28;20402;-65
2022/02/25 00:41:13;;;;;;;;;;;230.60;1305.60;;;;;;5033515;28;19936;-64
2022/02/25 00:43:38;;;;;;;;;;;230.60;1280.00;;;;;;5033623;28;19994;-65
2022/02/25 00:46:04;;;;;;;;;;;230.50;1280.00;;;;;;5033322;28;19956;-64
2022/02/25 00:48:30;;;;;;;;;;;230.50;1280.00;;;;;;5033735;28;19992;-68
2022/02/25 00:50:55;;;;;;;;;;;230.60;1280.00;;;;;;5033730;28;19909;-69
2022/02/25 00:53:21;;;;;;;;;;;230.50;1280.00;;;;;;5033579;28;19905;-65
2022/02/25 00:55:46;;;;;;;;;;;230.50;1280.00;;;;;;5033598;28;20351;-66
2022/02/25 00:58:12;;;;;;;;;;;230.60;1280.00;;;;;;5033509;28;19905;-66
2022/02/25 01:00:38;;;;;;;;;;;230.50;1280.00;;;;;;5033164;28;19940;-66
2022/02/25 01:03:03;;;;;;;;;;;230.50;1280.00;;;;;;5033338;28;19906;-67
2022/02/25 01:05:29;;;;;;;;;;;230.60;1280.00;;;;;;5033515;28;20345;-66
2022/02/25 01:07:54;;;;;;;;;;;230.50;1280.00;;;;;;5033087;28;19912;-65
2022/02/25 01:10:20;;;;;;;;;;;230.50;1280.00;;;;;;5033318;28;19909;-65
2022/02/25 01:12:46;;;;;;;;;;;230.50;1280.00;;;;;;5033308;28;19909;-66
2022/02/25 01:15:12;;;;;;;;;;;230.40;1280.00;;;;;;5033532;28;19905;-66
2022/02/25 01:17:38;;;;;;;;;;;230.50;1280.00;;;;;;5032198;28;19920;-66
2022/02/25 01:20:04;;;;;;;;;;;230.50;1280.00;;;;;;5032492;28;20271;-67
2022/02/25 01:22:30;;;;;;;;;;;230.40;1280.00;;;;;;5032478;28;19924;-66
2022/02/25 01:24:55;;;;;;;;;;;230.40;1280.00;;;;;;5032439;28;19909;-65
2022/02/25 01:27:21;;;;;;;;;;;230.40;1280.00;;;;;;5032447;28;19912;-66
2022/02/25 01:29:47;;;;;;;;;;;230.40;1280.00;;;;;;5032912;28;19904;-68
2022/02/25 01:32:12;;;;;;;;;;;230.40;1280.00;;;;;;5033628;28;20008;-66
2022/02/25 01:34:38;;;;;;;;;;;230.40;1280.00;;;;;;5034937;28;19912;-66
2022/02/25 01:37:04;;;;;;;;;;;230.40;1280.00;;;;;;5040987;28;19909;-65
2022/02/25 01:39:30;;;;;;;;;;;230.40;1280.00;;;;;;5041395;28;19909;-67
2022/02/25 01:41:56;;;;;;;;;;;230.40;1280.00;;;;;;5038270;28;19924;-66
2022/02/25 01:44:23;;;;;;;;;;;230.40;1280.00;;;;;;5033240;28;20039;-66
2022/02/25 01:46:50;;;;;;;;;;;230.40;1280.00;;;;;;5039652;28;20011;-68
2022/02/25 01:49:16;;;;;;;;;;;230.40;1280.00;;;;;;5045694;28;19919;-66
2022/02/25 01:51:42;;;;;;;;;;;205.70;1280.00;;;;;;5045218;28;20359;-66
2022/02/25 01:54:08;;;;;;;;;;;230.40;1280.00;;;;;;5046632;28;19909;-65
2022/02/25 01:56:34;;;;;;;;;;;205.70;1305.60;;;;;;5044591;28;19913;-66
2022/02/25 01:59:00;;;;;;;;;;;205.60;1280.00;;;;;;5045701;28;19984;-65
2022/02/25 02:01:26;;;;;;;;;;;205.60;1305.60;;;;;;5044414;28;20354;-67
2022/02/25 02:03:53;;;;;;;;;;;205.60;1305.60;;;;;;5036652;28;19909;-66
2022/02/25 02:06:19;;;;;;;;;;;205.60;1305.60;;;;;;5019113;28;19912;-67
2022/02/25 02:08:45;;;;;;;;;;;230.40;1280.00;;;;;;5043807;28;19909;-66
2022/02/25 02:11:11;;;;;;;;;;;205.70;1280.00;;;;;;5044623;28;19913;-66
2022/02/25 02:13:36;;;;;;;;;;;205.60;1305.60;;;;;;5046905;28;20009;-66
2022/02/25 02:16:02;;;;;;;;;;;205.70;1280.00;;;;;;5056534;28;20003;-66
2022/02/25 02:18:27;;;;;;;;;;;205.70;1280.00;;;;;;5056514;28;19904;-66
2022/02/25 02:20:53;;;;;;;;;;;205.70;1305.60;;;;;;5056345;28;19913;-66
2022/02/25 02:23:18;;;;;;;;;;;205.70;1280.00;;;;;;5056452;28;19933;-65
2022/02/25 02:25:44;;;;;;;;;;;205.70;1280.00;;;;;;5056505;28;19936;-65
2022/02/25 02:28:20;;;;;;;;;;;205.60;1305.60;;;;;;5056518;28;20396;-65
2022/02/25 02:30:46;;;;;;;;;;;205.70;1280.00;;;;;;5056514;28;19909;-66
2022/02/25 02:33:12;;;;;;;;;;;205.60;1280.00;;;;;;5056002;28;19913;-66
2022/02/25 02:35:38;;;;;;;;;;;205.50;1305.60;;;;;;5056267;28;19912;-65
2022/02/25 02:38:03;;;;;;;;;;;205.60;1280.00;;;;;;5056205;28;20317;-66
2022/02/25 02:40:29;;;;;;;;;;;205.50;1305.60;;;;;;5056193;28;19995;-66
2022/02/25 02:42:55;;;;;;;;;;;205.50;1305.60;;;;;;5056226;28;19905;-65
2022/02/25 02:45:21;;;;;;;;;;;205.50;1280.00;;;;;;5056125;28;19905;-66
2022/02/25 02:47:46;;;;;;;;;;;205.40;1305.60;;;;;;5055671;28;20285;-64
2022/02/25 02:50:12;;;;;;;;;;;205.40;1305.60;;;;;;5055987;28;19908;-64
2022/02/25 02:52:38;;;;;;;;;;;205.40;1305.60;;;;;;5038094;28;20313;-64
2022/02/25 02:55:04;;;;;;;;;;;205.40;1305.60;;;;;;5055471;28;19940;-63
2022/02/25 02:57:29;;;;;;;;;;;205.40;1305.60;;;;;;5055748;28;19983;-64
2022/02/25 02:59:55;;;;;;;;;;;205.40;1305.60;;;;;;5054595;28;20338;-64
2022/02/25 03:02:21;;;;;;;;;;;205.30;1305.60;;;;;;5055881;28;19913;-64
2022/02/25 03:04:46;;;;;;;;;;;205.40;1305.60;;;;;;5037682;28;19974;-64
2022/02/25 03:07:12;;;;;;;;;;;205.40;1305.60;;;;;;5055742;28;19905;-64
2022/02/25 03:09:38;;;;;;;;;;;205.30;1305.60;;;;;;5055450;28;19912;-64
2022/02/25 03:12:04;;;;;;;;;;;205.30;1305.60;;;;;;5055707;28;19905;-64
2022/02/25 03:14:29;;;;;;;;;;;205.30;1305.60;;;;;;5055775;28;19904;-64
2022/02/25 03:16:55;;;;;;;;;;;205.20;1305.60;;;;;;5055453;28;19944;-64
2022/02/25 03:19:21;;;;;;;;;;;205.30;1305.60;;;;;;5055301;28;19911;-64
2022/02/25 03:21:46;;;;;;;;;;;205.30;1305.60;;;;;;5055497;28;19979;-64
2022/02/25 03:24:12;;;;;;;;;;;205.30;1305.60;;;;;;5055439;28;19909;-64
2022/02/25 03:26:37;;;;;;;;;;;205.30;1305.60;;;;;;5055233;28;19912;-64
2022/02/25 03:29:03;;;;;;;;;;;205.30;1305.60;;;;;;5055314;28;19965;-65
2022/02/25 03:31:29;;;;;;;;;;;205.20;1305.60;;;;;;5055330;28;19926;-64
2022/02/25 03:33:54;;;;;;;;;;;205.30;1305.60;;;;;;5055044;28;20279;-64
2022/02/25 03:36:20;;;;;;;;;;;205.20;1331.20;;;;;;5055334;28;20370;-64
2022/02/25 03:38:46;;;;;;;;;;;205.10;1331.20;;;;;;5055056;28;20345;-64
2022/02/25 03:41:12;;;;;;;;;;;205.20;1305.60;;;;;;5054997;28;19913;-64
2022/02/25 03:43:37;;;;;;;;;;;205.10;1305.60;;;;;;5037069;28;20289;-64
2022/02/25 03:46:03;;;;;;;;;;;205.10;1331.20;;;;;;5054574;28;19904;-64
2022/02/25 03:48:29;;;;;;;;;;;205.10;1305.60;;;;;;5054929;28;19959;-63
2022/02/25 03:50:54;;;;;;;;;;;205.00;1331.20;;;;;;5054706;28;19927;-63
2022/02/25 03:53:20;;;;;;;;;;;205.10;1305.60;;;;;;5054877;28;19974;-64
2022/02/25 03:55:46;;;;;;;;;;;205.10;1331.20;;;;;;5054101;28;20400;-66
2022/02/25 03:58:11;;;;;;;;;;;205.00;1331.20;;;;;;5054884;28;19911;-65
2022/02/25 04:00:37;;;;;;;;;;;205.10;1305.60;;;;;;5054649;28;19904;-66
2022/02/25 04:03:02;;;;;;;;;;;205.00;1331.20;;;;;;5054708;28;19990;-70
2022/02/25 04:05:28;;;;;;;;;;;205.10;1382.40;;;;;;5036653;28;19905;-64
2022/02/25 04:07:54;;;;;;;;;;;205.10;1356.80;;;;;;5054711;28;20247;-64
2022/02/25 04:10:19;;;;;;;;;;;205.00;1331.20;;;;;;5054399;28;19909;-63
2022/02/25 04:12:45;;;;;;;;;;;205.20;1536.00;;;;;;5054494;28;19996;-65
2022/02/25 04:15:10;;;;;;;;;;;205.30;1408.00;;;;;;5054426;28;19975;-65
2022/02/25 04:17:37;;;;;;;;;;;205.20;1356.80;;;;;;5054449;28;20420;-65
2022/02/25 04:20:03;;;;;;;;;;;205.10;1356.80;;;;;;5054233;28;19905;-64
2022/02/25 04:22:28;;;;;;;;;;;205.10;1382.40;;;;;;5036226;28;19916;-63
2022/02/25 04:24:54;;;;;;;;;;;205.10;1356.80;;;;;;5036262;28;19905;-63
2022/02/25 04:27:21;;;;;;;;;;;205.10;1356.80;;;;;;5036317;28;19905;-63
2022/02/25 04:29:46;;;;;;;;;;;205.10;1331.20;;;;;;5036236;28;19908;-63
2022/02/25 04:32:12;;;;;;;;;;;205.00;1356.80;;;;;;5054258;28;19950;-63
2022/02/25 04:34:38;;;;;;;;;;;205.10;1331.20;;;;;;5054123;28;19928;-63
2022/02/25 04:37:04;;;;;;;;;;;204.90;1331.20;;;;;;5053891;28;19927;-63
2022/02/25 04:39:29;;;;;;;;;;;204.90;1331.20;;;;;;5053843;28;19905;-65
2022/02/25 04:41:55;;;;;;;;;;;204.90;1331.20;;;;;;5053875;28;19927;-67
2022/02/25 04:44:22;;;;;;;;;;;204.80;1331.20;;;;;;5054152;28;19955;-64
2022/02/25 04:46:47;;;;;;;;;;;204.80;1331.20;;;;;;5053384;28;19924;-64
2022/02/25 04:49:13;;;;;;;;;;;204.80;1331.20;;;;;;5053968;28;19904;-64
2022/02/25 04:51:39;;;;;;;;;;;180.10;1331.20;;;;;;5053943;28;19939;-64
2022/02/25 04:54:04;;;;;;;;;;;180.10;1331.20;;;;;;5053363;28;19909;-64
2022/02/25 04:56:30;;;;;;;;;;;180.10;1331.20;;;;;;5053376;28;19948;-64
2022/02/25 04:58:55;;;;;;;;;;;180.10;1356.80;;;;;;5054269;28;20354;-66
2022/02/25 05:01:21;;;;;;;;;;;180.10;1331.20;;;;;;5053976;28;20015;-66
2022/02/25 05:03:47;;;;;;;;;;;180.10;1356.80;;;;;;5053723;28;19908;-66
2022/02/25 05:06:12;;;;;;;;;;;180.10;1356.80;;;;;;5054156;28;19904;-66
2022/02/25 05:08:38;;;;;;;;;;;180.00;1356.80;;;;;;5053929;28;20388;-63
2022/02/25 05:11:03;;;;;;;;;;;179.90;1356.80;;;;;;5053703;28;20266;-67
2022/02/25 05:13:29;;;;;;;;;;;180.00;1331.20;;;;;;5053887;28;19904;-67
2022/02/25 05:21:23;;;;;;;;;;;180.10;1356.80;;;;;;5053654;28;20381;-67
2022/02/25 05:23:49;;;;;;;;;;;179.90;1356.80;;;;;;5056273;28;20261;-66
2022/02/25 05:26:15;;;;;;;;;;;180.00;1356.80;;;;;;5057517;28;19991;-66
2022/02/25 05:28:40;;;;;;;;;;;179.90;1356.80;;;;;;5057398;28;19905;-65
2022/02/25 05:31:06;;;;;;;;;;;179.90;1356.80;;;;;;5057171;28;19908;-64
2022/02/25 05:33:32;;;;;;;;;;;179.90;1356.80;;;;;;5057387;28;19973;-64
2022/02/25 05:35:58;;;;;;;;;;;179.90;1356.80;;;;;;5057304;28;19909;-64
2022/02/25 05:38:24;;;;;;;;;;;179.90;1356.80;;;;;;5057062;28;19911;-65
2022/02/25 05:40:50;;;;;;;;;;;179.90;1356.80;;;;;;5057118;28;19917;-64
2022/02/25 05:43:15;;;;;;;;;;;179.90;1356.80;;;;;;5057287;28;19905;-64
2022/02/25 05:45:41;;;;;;;;;;;180.00;1356.80;;;;;;5057149;28;19935;-64
2022/02/25 05:48:06;;;;;;;;;;;179.90;1356.80;;;;;;5057149;28;20386;-65
2022/02/25 05:50:32;;;;;;;;;;;179.90;1356.80;;;;;;5056903;28;19911;-65
2022/02/25 05:52:58;;;;;;;;;;;180.00;1356.80;;;;;;5057119;28;19904;-65
2022/02/25 05:55:24;;;;;;;;;;;179.90;1356.80;;;;;;5056822;28;20256;-63
2022/02/25 05:57:50;;;;;;;;;;;180.00;1356.80;;;;;;5057020;28;19909;-62
2022/02/25 06:00:16;;;;;;;;;;;179.90;1356.80;;;;;;5057132;28;19968;-63
2022/02/25 06:02:42;;;;;;;;;;;179.90;1356.80;;;;;;5056575;28;20370;-64
2022/02/25 06:05:08;;;;;;;;;;;180.00;1356.80;;;;;;5056670;28;19904;-64
2022/02/25 06:07:34;;;;;;;;;;;179.90;1356.80;;;;;;5056952;28;19927;-67
2022/02/25 06:09:59;;;;;;;;;;;180.00;1356.80;;;;;;5056945;28;19912;-66
2022/02/25 06:12:25;;;;;;;;;;;180.00;1356.80;;;;;;5056856;28;19995;-66
2022/02/25 06:14:51;;;;;;;;;;;180.00;1382.40;;;;;;5056216;28;19992;-67
2022/02/25 06:17:16;;;;;;;;;;;180.10;1356.80;;;;;;5056087;28;19909;-77
2022/02/25 06:19:42;;;;;;;;;;;180.00;1356.80;;;;;;5056401;28;19904;-65
2022/02/25 06:22:07;;;;;;;;;;;180.10;1356.80;;;;;;5056376;28;19916;-66
2022/02/25 06:24:33;;;;;;;;;;;180.10;1356.80;;;;;;5055971;28;19905;-64
2022/02/25 06:26:59;;;;;;;;;;;180.10;1356.80;;;;;;5056413;28;19905;-65
2022/02/25 06:29:24;;;;;;;;;;;204.80;1356.80;;;;;;5056387;28;19911;-65
2022/02/25 06:31:50;;;;;;;;;;;204.80;1356.80;;;;;;5055750;28;19905;-64
2022/02/25 06:34:15;;;;;;;;;;;204.80;1356.80;;;;;;5021162;28;20366;-66
2022/02/25 06:36:41;;;;;;;;;;;204.80;1356.80;;;;;;5037772;28;20321;-64
2022/02/25 06:39:08;;;;;;;;;;;204.80;1331.20;;;;;;5056170;28;19927;-64
2022/02/25 06:41:34;;;;;;;;;;;205.00;1331.20;;;;;;5056158;28;20011;-64
2022/02/25 06:43:59;;;;;;;;;;;204.90;1331.20;;;;;;5055716;28;19950;-65
2022/02/25 06:46:25;;;;;;;;;;;205.00;1356.80;;;;;;5055776;28;19916;-64
2022/02/25 06:48:50;;;;;;;;;;;204.90;1331.20;;;;;;5039709;28;19908;-66
2022/02/25 06:51:16;;;;;;;;;;;204.90;1356.80;;;;;;5036110;28;19978;-64
2022/02/25 06:53:42;;;;;;;;;;;205.00;1356.80;;;;;;5035088;28;19905;-64
2022/02/25 06:56:07;;;;;;;;;;;205.00;1356.80;;;;;;5035953;28;19951;-64
2022/02/25 06:58:34;;;;;;;;;;;205.00;1356.80;;;;;;5036052;28;19908;-65
2022/02/25 07:01:00;;;;;;;;;;;205.10;1356.80;;;;;;5035595;28;19919;-63
2022/02/25 07:03:26;;;;;;;;;;;205.10;1356.80;;;;;;5035759;28;20397;-63
2022/02/25 07:05:51;;;;;;;;;;;205.20;1356.80;;;;;;5035804;28;19905;-64
2022/02/25 07:08:17;;;;;;;;;;;205.30;1356.80;;;;;;5034831;28;20000;-64
2022/02/25 07:10:43;;;;;;;;;;;205.30;1356.80;;;;;;5035524;28;19909;-64
2022/02/25 07:13:09;;;;;;;;;;;205.30;1356.80;;;;;;5035737;28;19959;-64
2022/02/25 07:15:35;;;;;;;;;;;205.40;1356.80;;;;;;5017728;28;19905;-64
2022/02/25 07:18:01;;;;;;;;;;;205.40;1356.80;;;;;;5035569;28;19905;-64
2022/02/25 07:20:27;;;;;;;;;;;205.50;1356.80;;;;;;5035268;28;19909;-64
2022/02/25 07:22:53;;;;;;;;;;;205.60;1356.80;;;;;;5035249;28;19935;-63
2022/02/25 07:25:19;;;;;;;;;;;205.70;1382.40;;;;;;5017359;28;20457;-64
2022/02/25 07:27:45;;;;;;;;;;;205.70;1382.40;;;;;;5034298;28;19905;-63
2022/02/25 07:30:11;;;;;;;;;;;205.70;1382.40;;;;;;5035123;28;19916;-63
2022/02/25 07:32:37;;;;;;;;;;;205.70;1382.40;;;;;;5035025;28;20278;-63
2022/02/25 07:35:03;;;;;;;;;;;230.40;1356.80;;;;;;5034835;28;19905;-63
2022/02/25 07:37:29;;;;;;;;;;;230.40;1382.40;;;;;;5034760;28;19912;-64
2022/02/25 07:39:55;;;;;;;;;;;230.50;1408.00;;;;;;5034925;28;19905;-62
2022/02/25 07:42:21;;;;;;;;;;;230.60;1408.00;;;;;;5034907;28;19955;-63
2022/02/25 07:44:47;;;;;;;;;;;230.60;1382.40;;;;;;5034095;28;19909;-63
2022/02/25 07:47:12;;;;;;;;;;;230.70;1356.80;;;;;;5034357;28;19963;-61
2022/02/25 07:49:38;;;;;;;;;;;230.70;1356.80;;;;;;5033500;28;19909;-62
2022/02/25 07:52:04;;;;;;;;;;;230.80;1331.20;;;;;;5033121;28;20392;-63
2022/02/25 07:54:31;;;;;;;;;;;230.80;1331.20;;;;;;5033757;28;19905;-62
2022/02/25 07:56:57;;;;;;;;;;;230.90;1331.20;;;;;;5033971;28;19917;-64
2022/02/25 07:59:22;;;;;;;;;;;230.90;1331.20;;;;;;5032756;28;19924;-65
2022/02/25 08:01:48;;;;;;;;;;;230.90;1356.80;;;;;;5032428;28;19917;-62
2022/02/25 08:04:14;;;;;;;;;;;230.90;1331.20;;;;;;5034044;28;19909;-61
2022/02/25 08:06:42;;;;;;;;;;;231.00;1331.20;;;;;;5034179;28;19996;-62
2022/02/25 08:09:09;;;;;;;;;;;231.00;1331.20;;;;;;5031409;28;19905;-62
2022/02/25 08:11:36;;;;;;;;;;;231.10;1331.20;;;;;;5033243;28;19905;-64
2022/02/25 08:14:01;;;;;;;;;;;231.10;1305.60;;;;;;5033622;28;19920;-62
2022/02/25 08:16:27;;;;;;;;;;;231.10;1305.60;;;;;;5034258;28;19999;-64
2022/02/25 08:18:53;;;;;;;;;;;231.10;1331.20;;;;;;5033714;28;20262;-61
2022/02/25 08:21:18;;;;;;;;;;;231.20;1331.20;;;;;;5033636;28;19920;-62
2022/02/25 08:23:44;;;;;;;;;;;231.30;1331.20;;;;;;5033920;28;19912;-62
2022/02/25 08:26:09;;;;;;;;;;;231.30;1305.60;;;;;;5033883;28;20232;-62
2022/02/25 08:28:35;;;;;;;;;;;256.00;1280.00;;;;;;5034086;28;19905;-62
2022/02/25 08:31:01;;;;;;;;;;;256.00;1254.40;;;;;;5032790;28;19909;-61
2022/02/25 08:33:26;;;;;;;;;;;256.10;1254.40;;;;;;5032696;28;19916;-62
2022/02/25 08:35:52;;;;;;;;;;;256.20;1254.40;;;;;;5032833;28;19955;-62
2022/02/25 08:38:18;;;;;;;;;;;256.30;1254.40;;;;;;5032686;28;19928;-61
2022/02/25 08:40:43;;;;;;;;;;;256.50;1254.40;;;;;;5032309;28;19905;-62
2022/02/25 08:43:09;;;;;;;;;;;256.70;1254.40;;;;;;5032629;28;19909;-61
2022/02/25 08:45:35;;;;;;;;;;;281.60;1254.40;;;;;;5032703;28;20286;-62
2022/02/25 08:48:00;;;;;;;;;;;281.60;1228.80;;;;;;5042058;28;20430;-62
2022/02/25 08:50:26;;;;;;;;;;;281.80;1254.40;;;;;;5042080;28;19905;-61
2022/02/25 08:52:52;;;;;;;;;;;281.80;1228.80;;;;;;5043895;28;20426;-62
2022/02/25 08:55:19;;;;;;;;;;;282.00;1228.80;;;;;;5024015;28;19974;-62
2022/02/25 08:57:45;;;;;;;;;;;282.10;1203.20;;;;;;5040802;28;19909;-62
2022/02/25 09:00:12;;;;;;;;;;;282.20;1228.80;;;;;;5042639;28;20278;-63
2022/02/25 09:02:39;;;;;;;;;;;282.40;1228.80;;;;;;5027324;28;20011;-62
2022/02/25 09:05:05;;;;;;;;;;;282.50;1177.60;;;;;;5026812;28;19934;-63
2022/02/25 09:07:31;;;;;;;;;;;282.50;1152.00;;;;;;5037602;28;20054;-62
2022/02/25 09:09:56;;;;;;;;;;;307.20;1203.20;;;;;;5036357;28;20008;-62
2022/02/25 09:12:22;;;;;;;;;;;307.30;1203.20;;;;;;5035899;28;19905;-63
2022/02/25 09:14:48;;;;;;;;;;;307.40;1177.60;;;;;;5036183;28;19905;-62
2022/02/25 09:17:14;;;;;;;;;;;307.50;1203.20;;;;;;5036547;28;19916;-62
2022/02/25 09:19:39;;;;;;;;;;;307.50;1177.60;;;;;;5036173;28;19912;-63
2022/02/25 09:22:06;;;;;;;;;;;307.50;1177.60;;;;;;5035680;28;19921;-63
2022/02/25 09:24:32;;;;;;;;;;;307.50;1177.60;;;;;;5036389;28;19912;-63
2022/02/25 09:26:57;;;;;;;;;;;307.50;1177.60;;;;;;5035846;28;19916;-62
2022/02/25 09:29:23;;;;;;;;;;;307.50;1152.00;;;;;;5018144;28;19909;-62
2022/02/25 09:31:49;;;;;;;;;;;307.60;1152.00;;;;;;5036574;28;19916;-62
2022/02/25 09:34:15;;;;;;;;;;;307.50;1152.00;;;;;;5037430;28;19959;-62
2022/02/25 09:36:41;;;;;;;;;;;307.60;1152.00;;;;;;5019349;28;19905;-62
2022/02/25 09:39:07;;;;;;;;;;;307.70;1152.00;;;;;;5037357;28;19909;-62
2022/02/25 09:41:33;;;;;;;;;;;307.70;1177.60;;;;;;5037197;28;20404;-62
2022/02/25 09:43:58;;;;;;;;;;;307.70;1152.00;;;;;;5037360;28;19992;-62
2022/02/25 09:46:24;;;;;;;;;;;307.80;1152.00;;;;;;5019176;28;19924;-62
2022/02/25 09:48:50;;;;;;;;;;;307.70;1152.00;;;;;;5037288;28;19966;-62
2022/02/25 09:51:15;;;;;;;;;;;307.80;1177.60;;;;;;5037049;28;19905;-62
2022/02/25 09:53:41;;;;;;;;;;;307.80;1152.00;;;;;;5036765;28;19927;-62
2022/02/25 09:56:07;;;;;;;;;;;307.90;1152.00;;;;;;5036375;28;19948;-62
2022/02/25 09:58:32;;;;;;;;;;;307.90;1152.00;;;;;;5036124;28;20271;-62
2022/02/25 10:00:58;;;;;;;;;;;307.90;1126.40;;;;;;5037177;28;19905;-62
2022/02/25 10:03:29;;;;;;;;;;;308.00;1152.00;;;;;;5037010;28;19982;-62
2022/02/25 10:06:02;;;;;;;;;;;308.10;1152.00;;;;;;5018925;28;19920;-62
2022/02/25 10:08:27;;;;;;;;;;;308.10;1152.00;;;;;;5036404;28;20319;-62
2022/02/25 10:10:54;;;;;;;;;;;332.80;1177.60;;;;;;5036497;28;19940;-62
2022/02/25 10:13:21;;;;;;;;;;;332.90;1177.60;;;;;;5037211;28;19909;-62
2022/02/25 10:15:48;;;;;;;;;;;332.90;1152.00;;;;;;5036739;28;20287;-62
2022/02/25 10:18:16;;;;;;;;;;;332.90;1152.00;;;;;;5036692;28;19912;-62
2022/02/25 10:20:42;;;;;;;;;;;333.00;1152.00;;;;;;5036477;28;19911;-62
2022/02/25 10:23:23;;;;;;;;;;;333.00;1152.00;;;;;;5036620;28;19959;-62
2022/02/25 10:25:49;;;;;;;;;;;333.00;1152.00;;;;;;5036532;28;19905;-63
2022/02/25 10:28:17;;;;;;;;;;;333.10;1152.00;;;;;;5018608;28;19928;-62
2022/02/25 10:30:42;;;;;;;;;;;333.20;1152.00;;;;;;5036659;28;19905;-63
2022/02/25 10:33:08;;;;;;;;;;;333.20;1152.00;;;;;;5036834;28;19951;-62
2022/02/25 10:35:34;;;;;;;;;;;333.30;1126.40;;;;;;5035942;28;20333;-63
2022/02/25 10:38:01;;;;;;;;;;;333.30;1126.40;;;;;;5036528;28;19912;-62
2022/02/25 10:40:27;;;;;;;;;;;333.40;1126.40;;;;;;5036360;28;19905;-62
2022/02/25 10:42:53;;;;;;;;;;;333.50;1100.80;;;;;;5036108;28;20355;-62
2022/02/25 10:45:45;;;;;;;;;;;333.50;1100.80;;;;;;5036382;28;19963;-62
2022/02/25 10:48:16;;;;;;;;;;;333.60;1100.80;;;;;;5033002;28;19921;-62
2022/02/25 10:51:01;;;;;;;;;;;333.60;1100.80;;;;;;5035848;28;19905;-62
2022/02/25 10:53:27;;;;;;;;;;;333.70;1075.20;;;;;;4939806;29;20368;-62
2022/02/25 10:56:04;;;;;;;;;;;333.70;1100.80;;;;;;4955706;29;19913;-62
2022/02/25 10:58:38;;;;;;;;;;;333.70;1100.80;;;;;;4955650;29;20357;-62
2022/02/25 11:01:04;;;;;;;;;;;333.70;1100.80;;;;;;4955583;29;20391;-62
2022/02/25 11:03:29;;;;;;;;;;;358.40;1100.80;;;;;;4955680;29;19915;-62
2022/02/25 11:05:55;;;;;;;;;;;358.40;1075.20;;;;;;4939026;29;19977;-62
2022/02/25 11:08:20;;;;;;;;;;;358.40;1075.20;;;;;;4955472;29;19906;-62
2022/02/25 11:10:46;;;;;;;;;;;358.40;1049.60;;;;;;4939194;29;19914;-62
2022/02/25 11:13:12;;;;;;;;;;;358.50;1075.20;;;;;;4955461;29;19906;-62
2022/02/25 11:15:42;;;;;;;;;;;358.50;1075.20;;;;;;4955339;29;20003;-62
2022/02/25 11:18:08;;;;;;;;;;;358.50;1075.20;;;;;;4955376;29;19934;-62
2022/02/25 11:20:35;;;;;;;;;;;358.60;1075.20;;;;;;4954413;28;20005;-63
2022/02/25 11:23:08;;;;;;;;;;;358.60;1100.80;;;;;;4955143;29;19914;-63
2022/02/25 11:25:35;;;;;;;;;;;358.70;1075.20;;;;;;4955189;29;19906;-63
2022/02/25 11:28:01;;;;;;;;;;;358.70;1049.60;;;;;;4954821;29;19957;-63
2022/02/25 11:30:33;;;;;;;;;;;358.70;1075.20;;;;;;4993288;28;19916;-63
2022/02/25 11:32:58;;;;;;;;;;;358.80;1075.20;;;;;;5035281;28;19988;-63
2022/02/25 11:35:26;;;;;;;;;;;358.90;1075.20;;;;;;5035005;28;19940;-63
2022/02/25 11:37:57;;;;;;;;;;;358.90;1075.20;;;;;;5035348;28;20010;-63
2022/02/25 11:40:41;;;;;;;;;;;358.90;1075.20;;;;;;5035251;28;19905;-63
2022/02/25 11:43:08;;;;;;;;;;;359.00;1049.60;;;;;;5034941;28;20328;-62
2022/02/25 11:45:46;;;;;;;;;;;359.10;1049.60;;;;;;5035510;28;19905;-63
2022/02/25 11:48:11;;;;;;;;;;;359.00;1024.00;;;;;;5034680;28;20007;-63
2022/02/25 11:50:39;;;;;;;;;;;359.00;1049.60;;;;;;5035040;28;19908;-62
2022/02/25 11:53:23;;;;;;;;;;;359.10;1049.60;;;;;;5034822;28;20011;-62
2022/02/25 11:55:50;;;;;;;;;;;359.10;1024.00;;;;;;5034638;28;19905;-63
2022/02/25 11:58:36;;;;;;;;;;;359.10;1024.00;;;;;;5034880;28;20306;-62
2022/02/25 12:01:15;;;;;;;;;;;359.10;1024.00;;;;;;5034326;28;19905;-62
2022/02/25 12:04:07;;;;;;;;;;;359.10;1024.00;;;;;;5034502;28;19919;-63
2022/02/25 12:06:51;;;;;;;;;;;359.10;1024.00;;;;;;5031015;28;19905;-63
2022/02/25 12:09:37;;;;;;;;;;;359.10;1024.00;;;;;;5034532;28;19991;-63
2022/02/25 12:12:23;;;;;;;;;;;359.10;1024.00;;;;;;5034383;28;19940;-62
2022/02/25 12:15:04;;;;;;;;;;;359.10;1049.60;;;;;;5034363;28;19908;-62
2022/02/25 12:17:41;;;;;;;;;;;359.10;1049.60;;;;;;5034294;28;20003;-62
2022/02/25 12:20:10;;;;;;;;;;;359.20;1049.60;;;;;;5034446;28;19932;-62
2022/02/25 12:22:49;;;;;;;;;;;359.20;1049.60;;;;;;5034009;28;19913;-62
2022/02/25 12:25:14;;;;;;;;;;;359.20;1024.00;;;;;;5033660;28;19905;-62
2022/02/25 12:27:40;;;;;;;;;;;359.30;1024.00;;;;;;5034010;28;20275;-62
2022/02/25 12:30:35;;;;;;;;;;;359.30;1024.00;;;;;;5033412;28;19912;-62
2022/02/25 12:33:00;;;;;;;;;;;359.30;1024.00;;;;;;5033981;28;19909;-62
2022/02/25 12:35:45;;;;;;;;;;;384.00;1024.00;;;;;;5033938;28;19950;-62
2022/02/25 12:38:12;;;;;;;;;;;384.10;1024.00;;;;;;5034107;28;20046;-62
2022/02/25 12:40:38;;;;;;;;;;;384.10;1024.00;;;;;;5034303;28;19905;-62
2022/02/25 12:43:06;;;;;;;;;;;384.10;1024.00;;;;;;5033972;28;19913;-62
2022/02/25 12:45:32;;;;;;;;;;;384.00;1049.60;;;;;;5033926;28;20363;-63
2022/02/25 12:47:58;;;;;;;;;;;384.10;1049.60;;;;;;5033893;28;19920;-63
2022/02/25 12:50:23;;;;;;;;;;;384.00;1024.00;;;;;;5033383;28;19905;-62
2022/02/25 12:52:49;;;;;;;;;;;384.10;1024.00;;;;;;5033981;28;19905;-62
2022/02/25 12:55:16;;;;;;;;;;;384.10;1024.00;;;;;;5033908;28;19951;-64
2022/02/25 12:57:41;;;;;;;;;;;384.10;1049.60;;;;;;5033947;28;20347;-64
2022/02/25 13:00:08;;;;;;;;;;;384.20;1075.20;;;;;;5033935;28;19997;-62
2022/02/25 13:02:33;;;;;;;;;;;384.40;1075.20;;;;;;5033744;28;20000;-63
2022/02/25 13:04:59;;;;;;;;;;;384.40;1049.60;;;;;;5033741;28;19959;-62
2022/02/25 13:07:25;;;;;;;;;;;384.50;1075.20;;;;;;5033664;28;19959;-63
2022/02/25 13:09:52;;;;;;;;;;;384.80;1254.40;;;;;;5033424;28;19905;-63
2022/02/25 13:12:20;;;;;;;;;;;409.60;1254.40;;;;;;5033705;28;20359;-61
2022/02/25 13:14:56;;;;;;;;;;;409.60;1100.80;;;;;;5033633;28;19947;-61
2022/02/25 13:17:24;;;;;;;;;;;409.60;1049.60;;;;;;5033728;28;20003;-61
2022/02/25 13:19:57;;;;;;;;;;;384.80;1024.00;;;;;;5033426;28;19912;-61
2022/02/25 13:22:29;;;;;;;;;;;384.80;1024.00;;;;;;5034294;28;19913;-61
2022/02/25 13:24:55;;;;;;;;;;;384.70;1024.00;;;;;;5033635;28;19912;-65
2022/02/25 13:27:47;;;;;;;;;;;384.70;998.40;;;;;;5033477;28;19905;-62
2022/02/25 13:30:18;;;;;;;;;;;384.60;998.40;;;;;;5011619;28;19966;-61
2022/02/25 13:33:07;;;;;;;;;;;384.50;998.40;;;;;;5033527;28;19909;-61
2022/02/25 13:35:37;;;;;;;;;;;384.40;1024.00;;;;;;5022868;28;19909;-61
2022/02/25 13:38:04;;;;;;;;;;;384.40;1024.00;;;;;;5033687;28;19905;-64
2022/02/25 13:40:38;;;;;;;;;;;384.30;1024.00;;;;;;5032140;28;20377;-64
2022/02/25 13:43:22;;;;;;;;;;;384.20;1024.00;;;;;;5025649;28;19948;-63
2022/02/25 13:45:48;;;;;;;;;;;384.20;1024.00;;;;;;5036932;28;19909;-62
2022/02/25 13:53:46;;;;;;;;;;;384.20;1254.40;;;;;;5036877;28;19967;-61